createdAt,value
2022-10-19T00:02:15.950Z,11.24
2022-10-19T00:04:42.469Z,11.26
2022-10-19T00:07:08.860Z,11.31
2022-10-19T00:09:35.253Z,11.31
2022-10-19T00:12:01.629Z,11.32
2022-10-19T00:14:28.020Z,11.32
2022-10-19T00:16:54.545Z,11.35
2022-10-19T00:19:25.463Z,11.38
2022-10-19T00:21:51.897Z,11.40
2022-10-19T00:24:18.328Z,11.37
2022-10-19T00:26:44.716Z,11.35
2022-10-19T00:29:12.360Z,11.34
2022-10-19T00:31:38.937Z,11.38
2022-10-19T00:34:05.348Z,11.33
2022-10-19T00:36:33.556Z,11.36
2022-10-19T00:39:00.191Z,11.38
2022-10-19T00:41:29.124Z,11.39
2022-10-19T00:44:06.628Z,11.41
2022-10-19T00:46:35.280Z,11.39
2022-10-19T00:49:09.988Z,11.44
2022-10-19T00:51:39.573Z,11.45
2022-10-19T00:54:05.993Z,11.47
2022-10-19T00:56:32.636Z,11.50
2022-10-19T00:58:59.053Z,11.49
2022-10-19T01:01:25.510Z,11.47
2022-10-19T01:03:51.909Z,11.48
2022-10-19T01:06:18.315Z,11.48
2022-10-19T01:08:44.686Z,11.47
2022-10-19T01:11:35.814Z,11.46
2022-10-19T01:14:21.116Z,11.45
2022-10-19T01:16:50.389Z,11.40
2022-10-19T01:19:39.732Z,11.38
2022-10-19T01:22:32.602Z,11.36
2022-10-19T01:25:21.356Z,11.35
2022-10-19T01:28:02.969Z,11.31
2022-10-19T01:30:36.062Z,11.34
2022-10-19T01:33:17.150Z,11.34
2022-10-19T01:35:55.561Z,11.32
2022-10-19T01:38:35.106Z,11.32
2022-10-19T01:41:04.393Z,11.38
2022-10-19T01:43:30.778Z,11.40
2022-10-19T01:46:09.574Z,11.38
2022-10-19T01:48:36.113Z,11.37
2022-10-19T01:51:05.447Z,11.36
2022-10-19T01:53:34.901Z,11.35
2022-10-19T01:56:01.297Z,11.32
2022-10-19T01:58:28.852Z,11.28
2022-10-19T02:00:56.159Z,11.25
2022-10-19T02:03:23.236Z,11.25
2022-10-19T02:05:49.684Z,11.27
2022-10-19T02:08:19.299Z,11.27
2022-10-19T02:10:45.732Z,11.24
2022-10-19T02:13:13.229Z,11.25
2022-10-19T02:15:40.933Z,11.21
2022-10-19T02:18:07.296Z,11.18
2022-10-19T02:20:34.830Z,11.17
2022-10-19T02:23:05.597Z,11.13
2022-10-19T02:25:32.557Z,11.12
2022-10-19T02:27:59.049Z,11.14
2022-10-19T02:30:25.472Z,11.09
2022-10-19T02:32:51.837Z,11.04
2022-10-19T02:35:18.211Z,11.01
2022-10-19T02:37:44.604Z,11.00
2022-10-19T02:40:11.139Z,10.98
2022-10-19T02:42:41.517Z,10.96
2022-10-19T02:45:29.220Z,10.96
2022-10-19T02:48:00.799Z,10.95
2022-10-19T02:50:27.835Z,10.94
2022-10-19T02:52:54.261Z,11.03
2022-10-19T02:55:20.626Z,11.05
2022-10-19T02:57:47.025Z,11.05
2022-10-19T03:00:13.430Z,11.06
2022-10-19T03:02:39.816Z,11.11
2022-10-19T03:05:06.562Z,11.14
2022-10-19T03:07:33.260Z,11.12
2022-10-19T03:09:59.814Z,11.10
2022-10-19T03:12:26.226Z,11.08
2022-10-19T03:14:52.607Z,11.09
2022-10-19T03:17:19.196Z,11.09
2022-10-19T03:19:45.694Z,11.08
2022-10-19T03:22:13.435Z,11.06
2022-10-19T03:24:39.809Z,11.05
2022-10-19T03:27:06.201Z,11.07
2022-10-19T03:29:32.589Z,11.08
2022-10-19T03:31:58.983Z,11.04
2022-10-19T03:34:25.363Z,10.98
2022-10-19T03:36:51.730Z,11.00
2022-10-19T03:39:18.233Z,11.01
2022-10-19T03:41:44.696Z,11.02
2022-10-19T03:44:11.276Z,11.02
2022-10-19T03:46:37.800Z,11.01
2022-10-19T03:49:04.269Z,11.01
2022-10-19T03:51:31.336Z,10.98
2022-10-19T03:54:02.994Z,10.95
2022-10-19T03:56:29.934Z,10.98
2022-10-19T03:58:57.019Z,11.01
2022-10-19T04:01:30.267Z,10.95
2022-10-19T04:04:02.164Z,10.91
2022-10-19T04:06:30.214Z,10.89
2022-10-19T04:08:56.620Z,10.88
2022-10-19T04:11:24.755Z,10.90
2022-10-19T04:13:52.133Z,10.88
2022-10-19T04:16:19.128Z,10.87
2022-10-19T04:18:45.706Z,10.87
2022-10-19T04:21:28.204Z,10.89
2022-10-19T04:24:05.489Z,10.90
2022-10-19T04:26:32.230Z,10.91
2022-10-19T04:28:58.975Z,10.91
2022-10-19T04:31:25.704Z,10.95
2022-10-19T04:33:52.241Z,10.95
2022-10-19T04:36:18.660Z,10.95
2022-10-19T04:38:45.106Z,10.95
2022-10-19T04:41:13.263Z,10.95
2022-10-19T04:43:39.713Z,10.95
2022-10-19T04:46:09.804Z,10.98
2022-10-19T04:48:36.662Z,11.01
2022-10-19T04:51:03.222Z,11.00
2022-10-19T04:53:29.746Z,10.97
2022-10-19T04:55:56.184Z,10.97
2022-10-19T04:58:22.654Z,10.95
2022-10-19T05:00:49.130Z,10.94
2022-10-19T05:03:15.532Z,10.92
2022-10-19T05:05:41.932Z,10.90
2022-10-19T05:08:09.062Z,10.90
2022-10-19T05:10:36.343Z,10.91
2022-10-19T05:13:02.762Z,10.90
2022-10-19T05:15:29.515Z,10.88
2022-10-19T05:17:56.065Z,10.90
2022-10-19T05:20:22.732Z,10.89
2022-10-19T05:22:49.151Z,10.85
2022-10-19T05:25:15.547Z,10.85
2022-10-19T05:27:41.987Z,10.87
2022-10-19T05:30:08.829Z,10.87
2022-10-19T05:32:35.431Z,10.90
2022-10-19T05:35:01.941Z,10.91
2022-10-19T05:37:28.337Z,10.91
2022-10-19T05:39:54.895Z,10.91
2022-10-19T05:42:21.290Z,10.91
2022-10-19T05:44:47.717Z,10.90
2022-10-19T05:47:14.149Z,10.91
2022-10-19T05:49:40.583Z,10.91
2022-10-19T05:52:06.955Z,10.93
2022-10-19T05:54:33.420Z,10.95
2022-10-19T05:56:59.824Z,10.94
2022-10-19T05:59:26.245Z,10.94
2022-10-19T06:01:52.691Z,10.96
2022-10-19T06:04:19.170Z,10.95
2022-10-19T06:06:47.021Z,10.98
2022-10-19T06:09:13.591Z,11.02
2022-10-19T06:11:41.221Z,11.01
2022-10-19T06:14:12.267Z,11.02
2022-10-19T06:16:38.959Z,11.04
2022-10-19T06:19:05.558Z,11.07
2022-10-19T06:21:32.452Z,11.08
2022-10-19T06:24:00.356Z,11.10
2022-10-19T06:26:26.924Z,11.11
2022-10-19T06:28:55.292Z,11.12
2022-10-19T06:31:21.724Z,11.16
2022-10-19T06:33:49.474Z,11.17
2022-10-19T06:36:20.982Z,11.19
2022-10-19T06:38:50.337Z,11.17
2022-10-19T06:41:16.879Z,11.19
2022-10-19T06:43:43.251Z,11.22
2022-10-19T06:46:16.576Z,11.24
2022-10-19T06:48:42.970Z,11.29
2022-10-19T06:51:09.420Z,11.33
2022-10-19T06:53:35.941Z,11.38
2022-10-19T06:56:03.783Z,11.40
2022-10-19T06:58:30.194Z,11.39
2022-10-19T07:00:57.524Z,11.41
2022-10-19T07:03:25.048Z,11.45
2022-10-19T07:05:58.585Z,11.48
2022-10-19T07:08:25.708Z,11.50
2022-10-19T07:10:57.303Z,11.53
2022-10-19T07:13:23.998Z,11.54
2022-10-19T07:15:55.906Z,11.54
2022-10-19T07:18:22.309Z,11.56
2022-10-19T07:20:58.476Z,11.67
2022-10-19T07:23:25.531Z,11.76
2022-10-19T07:25:55.114Z,11.79
2022-10-19T07:28:21.644Z,11.84
2022-10-19T07:30:48.098Z,11.80
2022-10-19T07:33:14.530Z,11.69
2022-10-19T07:35:40.993Z,11.67
2022-10-19T07:38:07.487Z,11.69
2022-10-19T07:40:34.193Z,11.67
2022-10-19T07:43:00.587Z,11.66
2022-10-19T07:45:26.994Z,11.65
2022-10-19T07:47:53.399Z,11.60
2022-10-19T07:50:19.781Z,11.63
2022-10-19T07:52:46.419Z,11.59
2022-10-19T07:55:12.800Z,11.56
2022-10-19T07:57:40.752Z,11.56
2022-10-19T08:00:09.159Z,11.60
2022-10-19T08:02:53.563Z,11.60
2022-10-19T08:05:21.989Z,11.63
2022-10-19T08:07:48.453Z,11.67
2022-10-19T08:10:14.892Z,11.74
2022-10-19T08:12:41.332Z,11.79
2022-10-19T08:15:08.011Z,11.89
2022-10-19T08:17:37.311Z,11.93
2022-10-19T08:20:04.836Z,11.97
2022-10-19T08:22:31.273Z,12.03
2022-10-19T08:24:57.799Z,12.05
2022-10-19T08:27:24.200Z,12.08
2022-10-19T08:29:50.775Z,12.10
2022-10-19T08:32:17.931Z,12.08
2022-10-19T08:34:44.612Z,12.06
2022-10-19T08:37:20.225Z,12.09
2022-10-19T08:39:57.377Z,11.99
2022-10-19T08:42:28.340Z,12.12
2022-10-19T08:45:31.258Z,12.20
2022-10-19T08:48:03.626Z,12.19
2022-10-19T08:50:37.740Z,12.21
2022-10-19T08:53:10.787Z,12.12
2022-10-19T08:55:59.692Z,12.03
2022-10-19T08:58:29.998Z,12.03
2022-10-19T09:01:04.190Z,12.06
2022-10-19T09:04:00.000Z,12.13
2022-10-19T09:06:30.262Z,12.11
2022-10-19T09:08:56.667Z,12.14
2022-10-19T09:11:24.751Z,12.21
2022-10-19T09:14:04.686Z,12.33
2022-10-19T09:16:31.957Z,12.52
2022-10-19T09:18:58.343Z,12.59
2022-10-19T09:21:34.447Z,12.65
2022-10-19T09:24:24.264Z,12.64
2022-10-19T09:26:58.107Z,12.68
2022-10-19T09:29:37.196Z,12.72
2022-10-19T09:32:05.360Z,12.82
2022-10-19T09:34:36.593Z,12.90
2022-10-19T09:37:03.134Z,12.95
2022-10-19T09:39:30.108Z,12.94
2022-10-19T09:42:39.050Z,12.97
2022-10-19T09:45:30.360Z,12.98
2022-10-19T09:48:02.402Z,12.94
2022-10-19T09:50:35.193Z,12.91
2022-10-19T09:53:04.691Z,12.88
2022-10-19T09:55:43.259Z,12.86
2022-10-19T09:58:17.813Z,12.77
2022-10-19T10:00:48.397Z,12.73
2022-10-19T10:03:37.860Z,12.65
2022-10-19T10:06:15.447Z,12.58
2022-10-19T10:08:46.868Z,12.60
2022-10-19T10:11:15.305Z,12.61
2022-10-19T10:13:43.425Z,12.64
2022-10-19T10:16:15.266Z,12.64
2022-10-19T10:21:47.958Z,12.89
2022-10-19T10:24:14.301Z,13.08
2022-10-19T10:26:42.125Z,13.27
2022-10-19T10:29:23.796Z,13.47
2022-10-19T10:31:53.742Z,13.45
2022-10-19T10:34:50.132Z,13.38
2022-10-19T10:37:37.408Z,13.26
2022-10-19T10:40:05.027Z,13.13
2022-10-19T10:42:40.149Z,13.03
2022-10-19T10:45:17.248Z,12.89
2022-10-19T10:47:43.607Z,12.79
2022-10-19T10:50:16.904Z,12.81
2022-10-19T10:52:55.342Z,12.87
2022-10-19T10:55:21.730Z,12.89
2022-10-19T10:57:53.245Z,12.83
2022-10-19T11:00:21.165Z,12.84
2022-10-19T11:03:13.895Z,12.93
2022-10-19T11:06:07.704Z,13.03
2022-10-19T11:09:09.307Z,12.99
2022-10-19T11:11:38.836Z,12.95
2022-10-19T11:14:28.945Z,12.90
2022-10-19T11:16:56.659Z,12.94
2022-10-19T11:19:33.889Z,13.01
2022-10-19T11:22:06.874Z,13.04
2022-10-19T11:24:47.923Z,13.18
2022-10-19T11:27:43.280Z,13.21
2022-10-19T11:30:09.624Z,13.25
2022-10-19T11:33:06.128Z,13.31
2022-10-19T11:35:44.647Z,13.31
2022-10-19T11:38:37.375Z,13.34
2022-10-19T11:41:18.647Z,13.42
2022-10-19T11:44:20.450Z,13.51
2022-10-19T11:46:59.876Z,13.57
2022-10-19T11:49:51.539Z,13.63
2022-10-19T11:52:24.446Z,13.71
2022-10-19T11:55:28.539Z,13.60
2022-10-19T11:58:04.097Z,13.63
2022-10-19T12:00:39.495Z,13.72
2022-10-19T12:03:38.416Z,13.87
2022-10-19T12:06:07.801Z,14.08
2022-10-19T12:08:51.285Z,14.14
2022-10-19T12:11:26.193Z,14.31
2022-10-19T12:13:55.873Z,14.25
2022-10-19T12:16:22.119Z,14.18
2022-10-19T12:18:50.112Z,14.04
2022-10-19T12:21:29.658Z,14.05
2022-10-19T12:23:59.172Z,14.27
2022-10-19T12:26:25.964Z,14.42
2022-10-19T12:28:53.998Z,14.68
2022-10-19T12:31:20.362Z,14.96
2022-10-19T12:34:24.347Z,15.17
2022-10-19T12:37:01.070Z,15.30
2022-10-19T12:39:49.861Z,15.18
2022-10-19T12:42:24.644Z,15.02
2022-10-19T12:45:09.971Z,14.95
2022-10-19T12:47:36.618Z,14.75
2022-10-19T12:50:03.625Z,14.86
2022-10-19T12:52:42.121Z,15.93
2022-10-19T12:55:17.474Z,16.15
2022-10-19T12:57:44.599Z,15.45
2022-10-19T13:00:25.247Z,15.10
2022-10-19T13:03:01.898Z,15.30
2022-10-19T13:05:29.419Z,15.19
2022-10-19T13:07:55.797Z,15.11
2022-10-19T13:10:23.590Z,15.03
2022-10-19T13:12:50.026Z,14.94
2022-10-19T13:15:34.998Z,15.05
2022-10-19T13:18:14.632Z,15.21
2022-10-19T13:20:48.601Z,15.43
2022-10-19T13:23:14.839Z,15.56
2022-10-19T13:25:41.831Z,15.20
2022-10-19T13:28:08.076Z,14.89
2022-10-19T13:30:37.147Z,14.90
2022-10-19T13:33:22.535Z,15.19
2022-10-19T13:35:48.933Z,16.05
2022-10-19T13:38:20.558Z,18.94
2022-10-19T13:40:49.845Z,22.63
2022-10-19T13:43:35.315Z,24.73
2022-10-19T13:46:04.562Z,23.69
2022-10-19T13:48:56.457Z,20.59
2022-10-19T13:51:41.413Z,17.78
2022-10-19T13:54:22.044Z,16.19
2022-10-19T13:56:54.419Z,15.37
2022-10-19T13:59:40.953Z,14.83
2022-10-19T14:02:47.013Z,14.84
2022-10-19T14:08:17.368Z,15.24
2022-10-19T14:11:00.260Z,15.07
2022-10-19T14:13:27.944Z,15.22
2022-10-19T14:15:55.796Z,14.98
2022-10-19T14:18:32.928Z,14.70
2022-10-19T14:21:00.871Z,14.66
2022-10-19T14:23:31.969Z,14.65
2022-10-19T14:26:05.576Z,14.57
2022-10-19T14:28:32.076Z,14.60
2022-10-19T14:31:04.090Z,14.61
2022-10-19T14:33:32.652Z,14.51
2022-10-19T14:35:59.413Z,14.39
2022-10-19T14:38:32.872Z,14.33
2022-10-19T14:40:59.287Z,14.14
2022-10-19T14:43:27.284Z,14.01
2022-10-19T14:46:06.062Z,13.87
2022-10-19T14:48:35.645Z,14.11
2022-10-19T14:51:02.161Z,15.17
2022-10-19T14:53:48.236Z,14.90
2022-10-19T14:56:19.793Z,14.41
2022-10-19T14:58:56.554Z,14.06
2022-10-19T15:01:22.975Z,13.89
2022-10-19T15:03:49.392Z,13.59
2022-10-19T15:06:21.732Z,13.41
2022-10-19T15:08:59.434Z,13.21
2022-10-19T15:11:35.899Z,13.01
2022-10-19T15:14:23.313Z,12.87
2022-10-19T15:16:53.492Z,12.76
2022-10-19T15:19:27.798Z,12.68
2022-10-19T15:22:13.131Z,12.57
2022-10-19T15:24:40.066Z,12.56
2022-10-19T15:27:32.541Z,12.49
2022-10-19T15:30:02.827Z,12.43
2022-10-19T15:32:34.819Z,12.38
2022-10-19T15:35:12.173Z,12.29
2022-10-19T15:37:41.543Z,12.25
2022-10-19T15:40:12.482Z,12.20
2022-10-19T15:42:42.219Z,12.18
2022-10-19T15:45:47.175Z,12.09
2022-10-19T15:48:24.026Z,11.95
2022-10-19T15:50:50.769Z,11.85
2022-10-19T15:53:17.306Z,11.78
2022-10-19T15:55:43.802Z,11.77
2022-10-19T15:58:10.749Z,11.75
2022-10-19T16:00:37.405Z,11.69
2022-10-19T16:03:04.932Z,11.67
2022-10-19T16:05:31.321Z,11.64
2022-10-19T16:07:57.769Z,11.60
2022-10-19T16:10:25.225Z,11.56
2022-10-19T16:12:51.852Z,11.45
2022-10-19T16:15:20.161Z,11.29
2022-10-19T16:17:46.666Z,11.28
2022-10-19T16:20:13.120Z,11.25
2022-10-19T16:22:39.502Z,11.19
2022-10-19T16:25:06.277Z,11.14
2022-10-19T16:27:33.053Z,11.09
2022-10-19T16:29:59.761Z,11.03
2022-10-19T16:32:26.163Z,10.98
2022-10-19T16:34:52.559Z,10.94
2022-10-19T16:37:19.097Z,10.89
2022-10-19T16:39:47.849Z,10.86
2022-10-19T16:42:14.332Z,10.78
2022-10-19T16:44:40.754Z,10.73
2022-10-19T16:47:09.449Z,10.72
2022-10-19T16:49:35.877Z,10.67
2022-10-19T16:52:02.265Z,10.65
2022-10-19T16:54:28.710Z,10.63
2022-10-19T16:56:55.173Z,10.63
2022-10-19T16:59:21.722Z,10.62
2022-10-19T17:01:48.179Z,10.59
2022-10-19T17:04:15.290Z,10.57
2022-10-19T17:06:41.732Z,10.56
2022-10-19T17:09:40.884Z,10.52
2022-10-19T17:11:54.636Z,10.45
2022-10-19T17:14:21.031Z,10.39
2022-10-19T17:16:47.519Z,10.37
2022-10-19T17:19:13.896Z,10.31
2022-10-19T17:21:40.332Z,10.27
2022-10-19T17:24:07.645Z,10.20
2022-10-19T17:26:40.873Z,10.17
2022-10-19T17:29:07.413Z,10.13
2022-10-19T17:31:33.864Z,10.10
2022-10-19T17:34:00.321Z,10.08
2022-10-19T17:36:28.775Z,10.08
2022-10-19T17:38:55.936Z,10.07
2022-10-19T17:41:22.577Z,10.04
2022-10-19T17:43:49.320Z,10.02
2022-10-19T17:46:16.680Z,9.98
2022-10-19T17:48:43.361Z,10.01
2022-10-19T17:51:14.476Z,9.96
2022-10-19T17:53:40.884Z,9.93
2022-10-19T17:56:07.661Z,9.98
2022-10-19T17:58:36.410Z,9.94
2022-10-19T18:01:07.700Z,9.86
2022-10-19T18:03:34.506Z,9.81
2022-10-19T18:06:09.888Z,9.76
2022-10-19T18:08:38.798Z,9.73
2022-10-19T18:11:18.672Z,9.68
2022-10-19T18:13:45.063Z,9.64
2022-10-19T18:16:16.463Z,9.58
2022-10-19T18:18:43.782Z,9.53
2022-10-19T18:21:11.892Z,9.48
2022-10-19T18:23:38.471Z,9.45
2022-10-19T18:26:06.360Z,9.43
2022-10-19T18:28:32.794Z,9.42
2022-10-19T18:31:08.418Z,9.41
2022-10-19T18:33:34.880Z,9.40
2022-10-19T18:36:01.280Z,9.38
2022-10-19T18:38:27.727Z,9.33
2022-10-19T18:40:54.144Z,9.29
2022-10-19T18:43:20.535Z,9.30
2022-10-19T18:45:53.893Z,9.28
2022-10-19T18:48:20.733Z,9.26
2022-10-19T18:50:47.160Z,9.18
2022-10-19T18:53:13.580Z,9.14
2022-10-19T18:55:40.869Z,9.13
2022-10-19T18:58:07.564Z,9.17
2022-10-19T19:00:34.104Z,9.19
2022-10-19T19:03:00.484Z,9.17
2022-10-19T19:07:53.656Z,9.18
2022-10-19T19:10:20.154Z,9.18
2022-10-19T19:12:49.129Z,9.13
2022-10-19T19:15:17.779Z,9.13
2022-10-19T19:17:46.261Z,9.12
2022-10-19T19:20:12.640Z,9.09
2022-10-19T19:22:39.178Z,9.04
2022-10-19T19:25:05.958Z,9.02
2022-10-19T19:27:32.511Z,9.00
2022-10-19T19:29:59.012Z,8.98
2022-10-19T19:32:25.418Z,8.97
2022-10-19T19:34:54.728Z,8.96
2022-10-19T19:37:21.428Z,8.92
2022-10-19T19:39:47.806Z,8.92
2022-10-19T19:42:14.177Z,8.89
2022-10-19T19:44:40.689Z,8.87
2022-10-19T19:47:07.080Z,8.82
2022-10-19T19:49:33.513Z,8.77
2022-10-19T19:51:59.996Z,8.71
2022-10-19T19:54:26.412Z,8.69
2022-10-19T19:56:53.300Z,8.66
2022-10-19T19:59:19.987Z,8.60
2022-10-19T20:01:46.515Z,8.62
2022-10-19T20:04:12.985Z,8.60
2022-10-19T20:06:39.912Z,8.60
2022-10-19T20:09:07.292Z,8.60
2022-10-19T20:11:36.077Z,8.63
2022-10-19T20:14:04.865Z,8.67
2022-10-19T20:16:31.286Z,8.65
2022-10-19T20:19:11.345Z,8.64
2022-10-19T20:21:37.887Z,8.63
2022-10-19T20:24:04.602Z,8.62
2022-10-19T20:26:31.081Z,8.60
2022-10-19T20:28:57.802Z,8.59
2022-10-19T20:31:24.630Z,8.61
2022-10-19T20:33:51.154Z,8.61
2022-10-19T20:36:25.057Z,8.58
2022-10-19T20:38:52.978Z,8.57
2022-10-19T20:41:20.198Z,8.53
2022-10-19T20:43:46.776Z,8.49
2022-10-19T20:46:15.248Z,8.49
2022-10-19T20:48:41.696Z,8.54
2022-10-19T20:51:22.453Z,8.52
2022-10-19T20:53:51.921Z,8.49
2022-10-19T20:56:20.034Z,8.50
2022-10-19T20:58:46.514Z,8.55
2022-10-19T21:01:17.919Z,8.56
2022-10-19T21:03:48.331Z,8.57
2022-10-19T21:06:15.119Z,8.54
2022-10-19T21:08:41.631Z,8.53
2022-10-19T21:11:15.600Z,8.50
2022-10-19T21:13:42.332Z,8.50
2022-10-19T21:16:13.573Z,8.48
2022-10-19T21:18:41.147Z,8.46
2022-10-19T21:21:16.554Z,8.40
2022-10-19T21:23:44.430Z,8.38
2022-10-19T21:26:11.041Z,8.38
2022-10-19T21:28:37.649Z,8.38
2022-10-19T21:31:05.093Z,8.35
2022-10-19T21:33:31.684Z,8.30
2022-10-19T21:36:01.850Z,8.34
2022-10-19T21:38:29.068Z,8.34
2022-10-19T21:40:59.242Z,8.35
2022-10-19T21:43:25.699Z,8.30
2022-10-19T21:45:52.084Z,8.27
2022-10-19T21:48:18.488Z,8.16
2022-10-19T21:50:44.977Z,8.22
2022-10-19T21:53:11.370Z,8.20
2022-10-19T21:55:39.012Z,8.16
2022-10-19T21:58:05.409Z,8.13
2022-10-19T22:00:31.795Z,8.13
2022-10-19T22:02:58.190Z,8.12
2022-10-19T22:05:24.596Z,8.09
2022-10-19T22:07:51.003Z,8.00
2022-10-19T22:10:18.000Z,7.95
2022-10-19T22:12:44.393Z,7.92
2022-10-19T22:15:11.033Z,7.90
2022-10-19T22:17:37.419Z,7.89
2022-10-19T22:20:04.153Z,7.87
2022-10-19T22:22:30.669Z,7.83
2022-10-19T22:24:57.056Z,7.83
2022-10-19T22:27:23.435Z,7.83
2022-10-19T22:29:51.352Z,7.84
2022-10-19T22:32:18.253Z,7.83
2022-10-19T22:34:44.648Z,7.80
2022-10-19T22:37:11.037Z,7.78
2022-10-19T22:39:37.443Z,7.79
2022-10-19T22:42:04.010Z,7.77
2022-10-19T22:44:30.636Z,7.78
2022-10-19T22:46:57.448Z,7.72
2022-10-19T22:49:23.867Z,7.74
2022-10-19T22:51:50.353Z,7.76
2022-10-19T22:54:16.768Z,7.81
2022-10-19T22:56:43.200Z,7.82
2022-10-19T22:59:09.643Z,7.79
2022-10-19T23:01:36.204Z,7.78
2022-10-19T23:04:02.706Z,7.80
2022-10-19T23:06:29.086Z,7.77
2022-10-19T23:08:55.493Z,7.74
2022-10-19T23:11:22.139Z,7.69
2022-10-19T23:13:48.534Z,7.69
2022-10-19T23:16:14.956Z,7.76
2022-10-19T23:18:41.411Z,7.78
2022-10-19T23:21:10.503Z,7.84
2022-10-19T23:23:36.903Z,7.84
2022-10-19T23:26:07.180Z,7.81
2022-10-19T23:28:34.733Z,7.77
2022-10-19T23:31:09.904Z,7.70
2022-10-19T23:33:36.266Z,7.68
2022-10-19T23:36:07.354Z,7.63
2022-10-19T23:38:33.956Z,7.59
2022-10-19T23:41:00.331Z,7.53
2022-10-19T23:43:26.893Z,7.52
2022-10-19T23:45:53.280Z,7.54
2022-10-19T23:48:19.667Z,7.58
2022-10-19T23:50:46.032Z,7.60
2022-10-19T23:53:12.490Z,7.66
2022-10-19T23:55:38.864Z,7.70
2022-10-19T23:58:05.251Z,7.76
